Time;durP1;ratioP1;P1;durP2;ratioP2;P2;SDS_P1;SDS_P2;PMS_P1;PMS_P2;Temp;Humidity;BMP_temperature;BMP_pressure;BME280_temperature;BME280_humidity;BME280_pressure;Samples;Min_cycle;Max_cycle;Signal;HPM_P1;HPM_P2
2022/10/15 00:02:03;;;;;;;;;;;;;;;13.99;58.03;100098.00;4416138;32;19982;-92
2022/10/15 00:04:30;;;;;;;;;;;;;;;13.80;58.32;100091.81;4410494;32;19982;-86
2022/10/15 00:06:57;;;;;;;;;;;;;;;13.83;58.40;100092.69;4423280;32;22029;-84
2022/10/15 00:09:23;;;;;;;;;;;;;;;13.94;58.09;100101.47;4421271;32;19968;-86
2022/10/15 00:11:51;;;;;;;;;;;;;;;13.98;58.10;100096.28;4437822;32;19986;-91
2022/10/15 00:14:17;;;;;;;;;;;;;;;13.86;58.42;100090.12;4428516;32;20427;-89
2022/10/15 00:16:44;;;;;;;;;;;;;;;13.79;58.40;100093.53;4445975;32;20008;-90
2022/10/15 00:19:11;;;;;;;;;;;;;;;13.96;57.93;100094.50;4432230;32;19982;-91
2022/10/15 00:21:38;;;;;;;;;;;;;;;13.85;58.22;100093.59;4429582;32;20011;-92
2022/10/15 00:24:05;;;;;;;;;;;;;;;13.79;58.45;100096.16;4433589;32;20063;-86
2022/10/15 00:26:32;;;;;;;;;;;;;;;13.71;58.62;100100.41;4416266;32;19992;-86
2022/10/15 00:29:00;;;;;;;;;;;;;;;13.79;58.61;100096.16;4413738;32;19989;-91
2022/10/15 00:31:28;;;;;;;;;;;;;;;13.72;59.06;100094.37;4430772;32;19974;-91
2022/10/15 00:33:56;;;;;;;;;;;;;;;13.57;59.66;100094.25;4423850;32;19983;-91
2022/10/15 00:36:24;;;;;;;;;;;;;;;13.55;59.40;100088.16;4424340;32;19978;-89
2022/10/15 00:38:51;;;;;;;;;;;;;;;13.67;58.88;100090.84;4424546;32;20048;-84
2022/10/15 00:41:22;;;;;;;;;;;;;;;13.67;59.01;100088.25;4399901;32;20357;-88
2022/10/15 00:43:50;;;;;;;;;;;;;;;13.41;60.05;100078.50;4399754;32;20001;-86
2022/10/15 00:46:17;;;;;;;;;;;;;;;13.58;59.01;100085.56;4400176;32;19996;-91
2022/10/15 00:48:45;;;;;;;;;;;;;;;13.73;58.72;100080.50;4419220;32;19989;-91
2022/10/15 00:51:12;;;;;;;;;;;;;;;13.60;59.03;100078.66;4415233;32;19986;-93
2022/10/15 00:53:38;;;;;;;;;;;;;;;13.46;59.22;100066.44;4413863;32;19990;-89
2022/10/15 00:56:06;;;;;;;;;;;;;;;13.55;58.91;100064.75;4415260;32;20307;-86
2022/10/15 00:58:33;;;;;;;;;;;;;;;13.75;58.44;100063.13;4430565;32;20040;-88
2022/10/15 01:01:00;;;;;;;;;;;;;;;13.87;58.14;100063.22;4413140;32;19986;-92
2022/10/15 01:03:27;;;;;;;;;;;;;;;13.54;58.92;100063.00;4408414;32;19990;-88
2022/10/15 01:05:54;;;;;;;;;;;;;;;13.84;57.75;100065.81;4407653;32;20024;-91
2022/10/15 01:08:21;;;;;;;;;;;;;;;13.34;59.10;100071.53;4385028;32;19978;-91
2022/10/15 01:10:59;;;;;;;;;;;;;;;13.49;58.60;100061.22;4384725;32;19986;-89
2022/10/15 01:13:44;;;;;;;;;;;;;;;13.56;58.53;100053.47;4408161;32;20009;-90
2022/10/15 01:16:14;;;;;;;;;;;;;;;13.70;58.22;100054.44;4384536;32;20332;-89
2022/10/15 01:19:17;;;;;;;;;;;;;;;13.31;59.38;100061.09;4384070;32;20004;-88
2022/10/15 01:21:46;;;;;;;;;;;;;;;13.63;58.26;100057.87;4359678;32;20062;-88
2022/10/15 01:24:16;;;;;;;;;;;;;;;13.49;58.64;100056.03;4386648;32;20380;-86
2022/10/15 01:26:43;;;;;;;;;;;;;;;13.74;57.74;100051.00;4399973;32;20513;-88
2022/10/15 01:29:29;;;;;;;;;;;;;;;13.61;58.22;100059.59;4395489;32;19982;-88
2022/10/15 01:31:59;;;;;;;;;;;;;;;13.40;58.86;100055.97;4373181;32;20271;-84
2022/10/15 01:34:26;;;;;;;;;;;;;;;13.55;58.46;100054.34;4403229;32;20005;-88
2022/10/15 01:37:11;;;;;;;;;;;;;;;13.71;57.71;100045.78;4377190;32;20872;-90
2022/10/15 01:39:40;;;;;;;;;;;;;;;13.56;58.31;100040.47;4386348;32;20000;-89
2022/10/15 01:42:30;;;;;;;;;;;;;;;13.43;58.57;100048.19;4385324;32;20025;-90
2022/10/15 01:44:58;;;;;;;;;;;;;;;13.28;58.84;100045.47;4377489;32;20438;-85
2022/10/15 01:47:30;;;;;;;;;;;;;;;13.53;58.01;100048.25;4364935;32;19994;-90
2022/10/15 01:49:57;;;;;;;;;;;;;;;13.41;58.19;100052.50;4397470;32;19986;-89
2022/10/15 01:52:26;;;;;;;;;;;;;;;13.27;58.60;100041.09;4397985;32;20000;-91
2022/10/15 01:54:52;;;;;;;;;;;;;;;13.24;58.76;100038.44;4397279;32;20347;-89
2022/10/15 01:57:20;;;;;;;;;;;;;;;13.34;58.35;100042.06;4397891;32;19998;-91
2022/10/15 01:59:47;;;;;;;;;;;;;;;13.38;58.12;100047.28;4397565;32;19978;-89
2022/10/15 02:02:14;;;;;;;;;;;;;;;13.35;58.21;100046.38;4386500;32;19978;-84
2022/10/15 02:04:41;;;;;;;;;;;;;;;13.27;58.43;100046.31;4410236;32;19991;-86
2022/10/15 02:07:26;;;;;;;;;;;;;;;13.37;57.97;100045.53;4381830;32;19990;-91
2022/10/15 02:09:57;;;;;;;;;;;;;;;13.34;58.19;100058.53;4406879;32;20883;-91
2022/10/15 02:12:31;;;;;;;;;;;;;;;12.92;58.92;100046.84;4069699;32;10003978;-86
2022/10/15 02:15:18;;;;;;;;;;;;;;;13.03;59.21;100050.41;4394648;32;20010;-87
2022/10/15 02:17:53;;;;;;;;;;;;;;;13.09;58.89;100043.53;4414057;32;20000;-84
2022/10/15 02:20:23;;;;;;;;;;;;;;;13.23;58.38;100047.13;4425333;32;19986;-90
2022/10/15 02:23:01;;;;;;;;;;;;;;;13.03;58.61;100055.59;4436991;32;19978;-86
2022/10/15 02:25:28;;;;;;;;;;;;;;;13.26;57.64;100052.38;4429857;32;19983;-92
2022/10/15 02:27:57;;;;;;;;;;;;;;;13.33;57.41;100053.28;4440574;32;20654;-87
2022/10/15 02:30:25;;;;;;;;;;;;;;;13.06;58.27;100046.09;4440270;32;20000;-90
2022/10/15 02:32:53;;;;;;;;;;;;;;;13.24;57.70;100038.44;4410039;32;19978;-89
2022/10/15 02:35:20;;;;;;;;;;;;;;;13.09;58.28;100043.53;4448001;32;20004;-92
2022/10/15 02:37:48;;;;;;;;;;;;;;;12.98;58.84;100033.87;4440600;32;20000;-90
2022/10/15 02:40:17;;;;;;;;;;;;;;;13.11;58.17;100040.06;4436183;32;19990;-89
2022/10/15 02:42:45;;;;;;;;;;;;;;;12.99;58.54;100033.06;4434390;32;20338;-88
2022/10/15 02:45:12;;;;;;;;;;;;;;;12.97;58.44;100029.56;4439947;32;20003;-85
2022/10/15 02:47:39;;;;;;;;;;;;;;;13.11;58.17;100032.28;4417069;32;19978;-87
2022/10/15 02:50:07;;;;;;;;;;;;;;;13.15;57.87;100034.06;4440613;32;19994;-86
2022/10/15 02:52:33;;;;;;;;;;;;;;;12.80;58.57;100037.19;4415855;32;20061;-88
2022/10/15 02:55:00;;;;;;;;;;;;;;;13.02;57.82;100038.28;4411215;32;20015;-94
2022/10/15 02:57:29;;;;;;;;;;;;;;;13.15;57.63;100028.00;4395237;32;20002;-92
2022/10/15 02:59:57;;;;;;;;;;;;;;;12.94;58.16;100029.53;4394472;32;19999;-91
2022/10/15 03:02:25;;;;;;;;;;;;;;;12.91;58.33;100026.91;4371445;32;19988;-91
2022/10/15 03:04:52;;;;;;;;;;;;;;;13.01;57.60;100026.13;4376973;32;20000;-91
2022/10/15 03:07:20;;;;;;;;;;;;;;;13.02;57.43;100020.09;4378536;32;19978;-85
2022/10/15 03:09:47;;;;;;;;;;;;;;;13.23;56.92;100015.91;4417003;32;20321;-88
2022/10/15 03:12:14;;;;;;;;;;;;;;;12.68;58.66;100005.91;4384964;32;20085;-85
2022/10/15 03:14:41;;;;;;;;;;;;;;;12.44;59.24;100006.50;4386539;32;19978;-88
2022/10/15 03:17:09;;;;;;;;;;;;;;;12.79;58.19;100013.78;4385972;32;20013;-89
2022/10/15 03:19:36;;;;;;;;;;;;;;;12.51;58.92;100018.72;4393664;32;19982;-90
2022/10/15 03:22:03;;;;;;;;;;;;;;;12.83;57.95;100020.78;4421338;32;20032;-84
2022/10/15 03:24:34;;;;;;;;;;;;;;;13.04;57.25;100020.94;4430295;32;20063;-93
2022/10/15 03:27:01;;;;;;;;;;;;;;;12.82;58.03;100003.44;4440811;32;20040;-91
2022/10/15 03:29:28;;;;;;;;;;;;;;;12.64;58.44;100014.53;4423044;32;19989;-85
2022/10/15 03:31:56;;;;;;;;;;;;;;;12.83;57.93;100009.47;4431123;32;20000;-86
2022/10/15 03:34:24;;;;;;;;;;;;;;;12.83;58.09;100020.78;4426798;32;20008;-84
2022/10/15 03:36:51;;;;;;;;;;;;;;;12.56;59.01;100026.53;4422583;32;19978;-85
2022/10/15 03:39:17;;;;;;;;;;;;;;;12.85;58.50;100029.44;4420026;32;20007;-93
2022/10/15 03:41:45;;;;;;;;;;;;;;;12.63;59.04;100027.47;4430761;32;20036;-91
2022/10/15 03:44:15;;;;;;;;;;;;;;;12.68;58.79;100028.41;4431751;32;20505;-88
2022/10/15 03:46:43;;;;;;;;;;;;;;;12.83;58.68;100025.97;4431837;32;20000;-88
2022/10/15 03:49:10;;;;;;;;;;;;;;;12.93;58.29;100027.78;4431433;32;19981;-91
2022/10/15 03:51:38;;;;;;;;;;;;;;;12.85;58.81;100016.44;4426968;32;20831;-86
2022/10/15 03:54:05;;;;;;;;;;;;;;;12.91;58.46;100024.31;4424525;32;19993;-89
2022/10/15 03:56:35;;;;;;;;;;;;;;;12.89;58.45;100033.81;4442885;32;20788;-93
2022/10/15 03:59:05;;;;;;;;;;;;;;;12.92;58.26;100031.25;4430469;32;20351;-91
2022/10/15 04:01:33;;;;;;;;;;;;;;;12.86;58.40;100026.00;4426730;32;20088;-86
2022/10/15 04:04:00;;;;;;;;;;;;;;;12.72;58.91;100028.44;4419565;32;20001;-88
2022/10/15 04:06:28;;;;;;;;;;;;;;;12.77;58.79;100018.97;4416074;32;19989;-93
2022/10/15 04:09:01;;;;;;;;;;;;;;;12.62;58.99;100015.34;4416280;32;20001;-85
2022/10/15 04:11:28;;;;;;;;;;;;;;;12.38;59.66;100011.66;4416261;32;20330;-92
2022/10/15 04:13:56;;;;;;;;;;;;;;;12.42;59.52;100018.59;4435514;32;19986;-90
2022/10/15 04:16:24;;;;;;;;;;;;;;;12.63;58.75;100006.69;4427156;32;20035;-93
2022/10/15 04:18:51;;;;;;;;;;;;;;;12.86;57.94;100010.41;4417278;32;20032;-86
2022/10/15 04:21:18;;;;;;;;;;;;;;;12.79;58.06;100013.78;4429446;32;20750;-84
2022/10/15 04:23:46;;;;;;;;;;;;;;;12.84;57.84;100011.25;4425895;32;20005;-87
2022/10/15 04:26:15;;;;;;;;;;;;;;;12.70;57.78;100014.59;4423454;32;19988;-89
2022/10/15 04:28:42;;;;;;;;;;;;;;;12.62;58.13;100020.53;4429370;32;19981;-87
2022/10/15 04:31:09;;;;;;;;;;;;;;;12.68;58.09;100020.63;4437819;32;20335;-90
2022/10/15 04:33:38;;;;;;;;;;;;;;;12.55;57.90;100024.81;4410344;32;19990;-89
2022/10/15 04:36:06;;;;;;;;;;;;;;;12.62;58.08;100026.59;4393055;32;19974;-89
2022/10/15 04:38:39;;;;;;;;;;;;;;;12.73;57.57;100027.59;4430062;32;20373;-90
2022/10/15 04:41:08;;;;;;;;;;;;;;;12.67;57.75;100029.28;4442182;32;21025;-89
2022/10/15 04:43:36;;;;;;;;;;;;;;;12.44;58.29;100032.44;4430643;32;19985;-88
2022/10/15 04:46:04;;;;;;;;;;;;;;;12.53;58.09;100029.97;4439899;32;19977;-93
2022/10/15 04:48:32;;;;;;;;;;;;;;;12.59;58.10;100028.31;4415285;32;19982;-89
2022/10/15 04:51:09;;;;;;;;;;;;;;;12.39;58.73;100028.09;4416730;32;20476;-91
2022/10/15 04:53:36;;;;;;;;;;;;;;;12.41;58.66;100022.06;4429931;32;20000;-90
2022/10/15 04:56:04;;;;;;;;;;;;;;;12.28;58.75;100020.16;4430742;32;19989;-87
2022/10/15 04:58:31;;;;;;;;;;;;;;;12.40;58.76;100019.44;4418545;32;19981;-87
2022/10/15 05:01:03;;;;;;;;;;;;;;;12.31;59.22;100031.44;4443071;32;20004;-89
2022/10/15 05:03:30;;;;;;;;;;;;;;;12.73;57.95;100029.31;4422183;32;20000;-91
2022/10/15 05:06:06;;;;;;;;;;;;;;;12.50;58.58;100037.72;4407854;32;19991;-90
2022/10/15 05:08:35;;;;;;;;;;;;;;;12.52;58.74;100030.84;4428453;32;20033;-92
2022/10/15 05:11:03;;;;;;;;;;;;;;;12.48;58.86;100034.25;4424943;32;20040;-93
2022/10/15 05:13:32;;;;;;;;;;;;;;;12.57;58.70;100034.38;4404779;32;20024;-93
2022/10/15 05:16:08;;;;;;;;;;;;;;;12.64;58.59;100037.03;4423066;32;19970;-95
2022/10/15 05:18:35;;;;;;;;;;;;;;;12.52;58.87;100036.03;4433306;32;20352;-93
2022/10/15 05:21:02;;;;;;;;;;;;;;;12.67;58.82;100034.47;4433515;32;19992;-94
2022/10/15 05:23:29;;;;;;;;;;;;;;;12.55;59.09;100038.66;4438075;32;19985;-91
2022/10/15 05:26:00;;;;;;;;;;;;;;;12.61;58.86;100035.25;4429943;32;19984;-93
2022/10/15 05:28:28;;;;;;;;;;;;;;;12.62;58.78;100036.13;4448537;32;19981;-83
2022/10/15 05:30:55;;;;;;;;;;;;;;;12.58;59.14;100040.44;4416288;32;19993;-92
2022/10/15 05:33:22;;;;;;;;;;;;;;;12.76;58.60;100034.53;4418797;32;19982;-86
2022/10/15 05:35:49;;;;;;;;;;;;;;;12.77;58.76;100031.09;4417509;32;19969;-88
2022/10/15 05:38:16;;;;;;;;;;;;;;;12.48;59.77;100029.06;4423998;32;19995;-79
2022/10/15 05:40:46;;;;;;;;;;;;;;;12.55;60.12;100024.81;4419713;32;20033;-91
2022/10/15 05:43:14;;;;;;;;;;;;;;;12.14;61.62;100019.13;4420714;32;20075;-88
2022/10/15 05:45:40;;;;;;;;;;;;;;;12.53;60.29;100022.19;4414434;32;20705;-86
2022/10/15 05:48:07;;;;;;;;;;;;;;;12.71;60.28;100028.44;4416860;32;20040;-85
2022/10/15 05:50:34;;;;;;;;;;;;;;;12.70;60.39;100037.06;4416687;32;20687;-85
2022/10/15 05:53:01;;;;;;;;;;;;;;;12.60;60.81;100028.31;4415907;32;20004;-87
2022/10/15 05:55:29;;;;;;;;;;;;;;;12.69;60.37;100033.59;4428169;32;19978;-86
2022/10/15 05:57:59;;;;;;;;;;;;;;;12.71;60.58;100036.22;4416722;32;19993;-89
2022/10/15 06:00:26;;;;;;;;;;;;;;;12.95;59.71;100030.41;4416055;32;20009;-88
2022/10/15 06:02:53;;;;;;;;;;;;;;;12.74;60.42;100028.47;4416847;32;20005;-86
2022/10/15 06:05:25;;;;;;;;;;;;;;;12.79;60.60;100035.47;4415851;32;19977;-86
2022/10/15 06:07:51;;;;;;;;;;;;;;;13.01;59.89;100041.72;4415739;32;19997;-86
2022/10/15 06:10:18;;;;;;;;;;;;;;;13.15;59.83;100041.88;4417090;32;19986;-86
2022/10/15 06:12:49;;;;;;;;;;;;;;;13.07;60.66;100048.69;4440060;32;20291;-88
2022/10/15 06:15:16;;;;;;;;;;;;;;;13.01;61.30;100057.31;4420878;32;20012;-86
2022/10/15 06:17:43;;;;;;;;;;;;;;;13.16;60.76;100058.31;4416651;32;19986;-85
2022/10/15 06:20:11;;;;;;;;;;;;;;;12.92;62.18;100059.84;4415222;32;20365;-85
2022/10/15 06:22:38;;;;;;;;;;;;;;;13.30;61.02;100064.53;4427241;32;19950;-86
2022/10/15 06:25:05;;;;;;;;;;;;;;;13.45;60.81;100067.25;4414549;32;20256;-89
2022/10/15 06:27:32;;;;;;;;;;;;;;;13.36;61.99;100069.78;4416402;32;19990;-85
2022/10/15 06:29:59;;;;;;;;;;;;;;;13.66;61.32;100066.56;4417852;32;19982;-87
2022/10/15 06:32:26;;;;;;;;;;;;;;;13.63;61.82;100068.28;4409858;32;19993;-90
2022/10/15 06:34:52;;;;;;;;;;;;;;;13.76;62.05;100064.91;4428996;32;20000;-88
2022/10/15 06:37:19;;;;;;;;;;;;;;;13.94;61.82;100075.44;4416566;32;20366;-86
2022/10/15 06:39:47;;;;;;;;;;;;;;;14.06;62.18;100078.97;4421126;32;20400;-81
2022/10/15 06:42:14;;;;;;;;;;;;;;;14.16;62.51;100070.31;4424216;32;20312;-89
2022/10/15 06:44:41;;;;;;;;;;;;;;;14.34;62.49;100070.41;4421426;32;19978;-88
2022/10/15 06:47:08;;;;;;;;;;;;;;;14.52;62.62;100074.03;4414920;32;20354;-85
2022/10/15 06:49:35;;;;;;;;;;;;;;;14.72;62.81;100077.56;4416997;32;19985;-86
2022/10/15 06:52:02;;;;;;;;;;;;;;;14.91;62.89;100082.81;4416123;32;20324;-88
2022/10/15 06:54:29;;;;;;;;;;;;;;;15.10;62.66;100084.59;4418360;32;19974;-87
2022/10/15 06:56:56;;;;;;;;;;;;;;;15.19;62.55;100083.72;4429093;32;19993;-88
2022/10/15 06:59:23;;;;;;;;;;;;;;;15.44;62.09;100089.81;4425221;32;20742;-88
2022/10/15 07:01:50;;;;;;;;;;;;;;;15.63;61.54;100096.78;4429530;32;20001;-85
2022/10/15 07:04:17;;;;;;;;;;;;;;;15.78;61.08;100094.19;4422810;32;20631;-87
2022/10/15 07:06:44;;;;;;;;;;;;;;;16.20;60.03;100094.97;4421051;32;20081;-90
2022/10/15 07:09:11;;;;;;;;;;;;;;;16.59;59.11;100097.44;4428577;32;19982;-90
2022/10/15 07:11:38;;;;;;;;;;;;;;;16.87;58.57;100093.00;4423676;32;19978;-90
2022/10/15 07:14:07;;;;;;;;;;;;;;;17.05;57.92;100092.91;4419719;32;19977;-84
2022/10/15 07:16:35;;;;;;;;;;;;;;;17.35;56.85;100090.94;4414093;32;19994;-90
2022/10/15 07:19:02;;;;;;;;;;;;;;;17.58;56.12;100094.25;4417736;32;20036;-87
2022/10/15 07:21:28;;;;;;;;;;;;;;;17.90;55.15;100090.50;4424332;32;20027;-90
2022/10/15 07:23:55;;;;;;;;;;;;;;;18.18;55.05;100084.97;4425636;32;20003;-90
2022/10/15 07:26:22;;;;;;;;;;;;;;;18.40;53.59;100075.97;4424581;32;19985;-88
2022/10/15 07:28:49;;;;;;;;;;;;;;;18.52;53.53;100078.44;4412751;32;19993;-90
2022/10/15 07:31:16;;;;;;;;;;;;;;;18.71;53.58;100080.84;4418453;32;20011;-89
2022/10/15 07:33:43;;;;;;;;;;;;;;;18.98;53.01;100075.22;4423482;32;19989;-84
2022/10/15 07:36:12;;;;;;;;;;;;;;;19.13;51.56;100074.13;4427417;32;20011;-90
2022/10/15 07:38:40;;;;;;;;;;;;;;;19.19;51.17;100073.19;4423053;32;19989;-84
2022/10/15 07:41:08;;;;;;;;;;;;;;;19.28;51.14;100078.28;4428333;32;20372;-85
2022/10/15 07:43:38;;;;;;;;;;;;;;;19.48;51.21;100081.44;4429062;32;19997;-86
2022/10/15 07:46:05;;;;;;;;;;;;;;;19.65;51.32;100072.44;4428788;32;19996;-86
2022/10/15 07:48:32;;;;;;;;;;;;;;;19.58;50.33;100076.06;4427597;32;19999;-82
2022/10/15 07:51:00;;;;;;;;;;;;;;;19.47;50.27;100079.72;4420678;32;20339;-85
2022/10/15 07:53:27;;;;;;;;;;;;;;;19.62;50.30;100076.00;4437036;32;19992;-88
2022/10/15 07:56:01;;;;;;;;;;;;;;;19.87;49.48;100078.19;4413981;32;20000;-92
2022/10/15 07:58:33;;;;;;;;;;;;;;;19.97;49.20;100075.38;4413760;32;20004;-88
2022/10/15 08:01:03;;;;;;;;;;;;;;;20.17;48.77;100088.16;4420394;32;19986;-88
2022/10/15 08:03:30;;;;;;;;;;;;;;;20.28;48.38;100074.78;4414728;32;19974;-86
2022/10/15 08:06:00;;;;;;;;;;;;;;;20.07;49.28;100101.47;4415570;32;19990;-93
2022/10/15 08:08:27;;;;;;;;;;;;;;;20.14;49.00;100092.59;4414262;32;20268;-91
2022/10/15 08:10:55;;;;;;;;;;;;;;;20.53;48.13;100096.22;4428401;32;19989;-79
2022/10/15 08:13:22;;;;;;;;;;;;;;;20.52;47.87;100105.03;4431533;32;19964;-86
2022/10/15 08:15:49;;;;;;;;;;;;;;;20.43;47.79;100099.91;4436358;32;20412;-95
2022/10/15 08:18:16;;;;;;;;;;;;;;;20.49;47.75;100094.53;4434378;32;20034;-80
2022/10/15 08:20:43;;;;;;;;;;;;;;;20.62;47.57;100095.19;4448267;32;19954;-83
2022/10/15 08:23:16;;;;;;;;;;;;;;;20.55;48.53;100094.44;4436740;32;20691;-96
2022/10/15 08:25:43;;;;;;;;;;;;;;;20.69;47.43;100096.78;4442880;32;19969;-93
2022/10/15 08:28:10;;;;;;;;;;;;;;;20.50;49.90;100095.38;4429814;32;20409;-92
2022/10/15 08:30:37;;;;;;;;;;;;;;;20.60;48.34;100102.22;4416539;32;19995;-92
2022/10/15 08:33:07;;;;;;;;;;;;;;;20.85;48.26;100092.03;4435112;32;19984;-96
2022/10/15 08:35:39;;;;;;;;;;;;;;;21.11;46.48;100091.44;4453805;32;19972;-93
2022/10/15 08:38:06;;;;;;;;;;;;;;;20.59;46.69;100101.34;4450313;32;19962;-93
2022/10/15 08:40:33;;;;;;;;;;;;;;;20.96;47.50;100091.78;4448798;32;19954;-86
2022/10/15 08:43:00;;;;;;;;;;;;;;;20.97;46.48;100093.53;4445941;32;20012;-96
2022/10/15 08:45:28;;;;;;;;;;;;;;;20.61;49.06;100090.78;4448273;32;19958;-86
2022/10/15 08:48:08;;;;;;;;;;;;;;;20.83;47.23;100094.69;4435165;32;20058;-91
2022/10/15 08:50:35;;;;;;;;;;;;;;;20.77;47.63;100100.12;4427075;32;20003;-94
2022/10/15 08:53:02;;;;;;;;;;;;;;;20.85;47.92;100087.63;4425969;32;20810;-85
2022/10/15 08:55:34;;;;;;;;;;;;;;;21.21;46.46;100095.59;4437599;32;19968;-92
2022/10/15 08:58:01;;;;;;;;;;;;;;;21.14;45.73;100094.00;4424485;32;20001;-84
2022/10/15 09:00:39;;;;;;;;;;;;;;;21.02;44.96;100094.28;4435990;32;19988;-81
2022/10/15 09:03:09;;;;;;;;;;;;;;;20.84;46.01;100090.31;4442596;32;19950;-81
2022/10/15 09:05:47;;;;;;;;;;;;;;;20.72;47.24;100090.59;4437079;32;20316;-83
2022/10/15 09:08:31;;;;;;;;;;;;;;;20.81;48.79;100083.34;4443214;32;20338;-83
2022/10/15 09:11:13;;;;;;;;;;;;;;;21.13;46.39;100087.87;4447872;32;20875;-81
2022/10/15 09:13:41;;;;;;;;;;;;;;;21.01;44.96;100092.56;4418237;32;19992;-89
2022/10/15 09:16:13;;;;;;;;;;;;;;;21.07;47.67;100103.81;4425553;32;19950;-94
2022/10/15 09:18:41;;;;;;;;;;;;;;;21.00;46.48;100112.75;4444346;32;20004;-88
2022/10/15 09:21:08;;;;;;;;;;;;;;;20.91;44.89;100112.97;4436708;32;20405;-81
2022/10/15 09:23:34;;;;;;;;;;;;;;;20.75;45.37;100112.44;4440863;32;19994;-80
2022/10/15 09:26:10;;;;;;;;;;;;;;;20.04;46.68;100122.53;4455844;32;19950;-92
2022/10/15 09:28:53;;;;;;;;;;;;;;;20.54;46.42;100118.13;4440221;32;19969;-88
2022/10/15 09:31:20;;;;;;;;;;;;;;;20.33;47.39;100125.53;4450664;32;19995;-92
2022/10/15 09:33:56;;;;;;;;;;;;;;;20.92;47.03;100124.34;4438493;32;19964;-84
2022/10/15 09:36:34;;;;;;;;;;;;;;;20.50;46.02;100116.44;4428620;32;19971;-79
2022/10/15 09:39:01;;;;;;;;;;;;;;;20.35;46.53;100118.44;4435348;32;19965;-92
2022/10/15 09:41:34;;;;;;;;;;;;;;;20.46;49.25;100109.50;4434977;32;19978;-91
2022/10/15 09:44:01;;;;;;;;;;;;;;;21.09;46.41;100103.78;4431762;32;19974;-87
2022/10/15 09:46:43;;;;;;;;;;;;;;;20.97;47.83;100102.31;4437748;32;20434;-89
2022/10/15 09:49:17;;;;;;;;;;;;;;;21.37;45.83;100107.53;4426542;32;19981;-91
2022/10/15 09:51:53;;;;;;;;;;;;;;;21.39;46.48;100109.28;4415625;32;20003;-87
2022/10/15 09:54:26;;;;;;;;;;;;;;;21.46;45.61;100105.59;4430676;32;19992;-93
2022/10/15 09:56:53;;;;;;;;;;;;;;;21.13;44.71;100102.81;4439575;32;19985;-93
2022/10/15 09:59:20;;;;;;;;;;;;;;;21.39;45.60;100104.87;4438472;32;19966;-96
2022/10/15 10:02:06;;;;;;;;;;;;;;;21.47;44.79;100107.31;4433693;32;20386;-95
2022/10/15 10:04:33;;;;;;;;;;;;;;;21.72;44.96;100099.66;4411951;32;20134;-95
2022/10/15 10:07:01;;;;;;;;;;;;;;;21.54;45.83;100098.37;4432282;32;19977;-94
2022/10/15 10:09:32;;;;;;;;;;;;;;;21.13;45.49;100097.56;4426867;32;20035;-94
2022/10/15 10:12:01;;;;;;;;;;;;;;;21.07;45.31;100102.97;4439910;32;20005;-91
2022/10/15 10:14:32;;;;;;;;;;;;;;;21.08;45.89;100095.00;4408269;32;19969;-92
2022/10/15 10:17:19;;;;;;;;;;;;;;;21.02;45.29;100087.25;4411954;32;20689;-93
2022/10/15 10:20:01;;;;;;;;;;;;;;;21.35;46.07;100088.28;4417430;32;20314;-93
2022/10/15 10:22:28;;;;;;;;;;;;;;;21.10;45.33;100102.91;4424199;32;20398;-90
2022/10/15 10:24:55;;;;;;;;;;;;;;;21.26;45.81;100099.00;4423050;32;20000;-90
2022/10/15 10:27:26;;;;;;;;;;;;;;;21.28;45.22;100091.94;4423037;32;19986;-91
2022/10/15 10:29:58;;;;;;;;;;;;;;;20.92;45.11;100091.00;4420958;32;19986;-88
2022/10/15 10:32:31;;;;;;;;;;;;;;;20.96;47.48;100083.91;4427775;32;20357;-85
2022/10/15 10:34:59;;;;;;;;;;;;;;;21.15;45.53;100085.19;4429151;32;19992;-89
2022/10/15 10:37:25;;;;;;;;;;;;;;;21.35;45.04;100077.75;4428382;32;20364;-92
2022/10/15 10:39:53;;;;;;;;;;;;;;;21.50;45.03;100075.63;4416042;32;20096;-85
2022/10/15 10:42:20;;;;;;;;;;;;;;;21.49;44.54;100066.88;4413800;32;19981;-90
2022/10/15 10:44:47;;;;;;;;;;;;;;;21.31;43.57;100068.16;4428523;32;20103;-89
2022/10/15 10:47:21;;;;;;;;;;;;;;;20.94;44.32;100064.66;4430154;32;19985;-88
2022/10/15 10:49:56;;;;;;;;;;;;;;;21.35;43.65;100058.44;4429929;32;19982;-85
2022/10/15 10:52:29;;;;;;;;;;;;;;;21.36;45.88;100060.19;4428157;32;20001;-94
2022/10/15 10:54:59;;;;;;;;;;;;;;;21.56;43.14;100054.41;4421225;32;20315;-89
2022/10/15 10:57:42;;;;;;;;;;;;;;;21.14;44.48;100057.16;4429552;32;19985;-92
2022/10/15 11:00:18;;;;;;;;;;;;;;;21.00;43.79;100060.13;4442059;32;19973;-86
2022/10/15 11:02:47;;;;;;;;;;;;;;;21.26;43.66;100067.41;4409457;32;19985;-94
2022/10/15 11:05:14;;;;;;;;;;;;;;;21.19;44.55;100063.19;4437636;32;20484;-87
2022/10/15 11:07:47;;;;;;;;;;;;;;;20.72;44.58;100054.63;4436133;32;20004;-85
2022/10/15 11:10:22;;;;;;;;;;;;;;;21.02;44.47;100049.53;4445190;32;19976;-88
2022/10/15 11:12:57;;;;;;;;;;;;;;;21.19;44.50;100044.75;4424662;32;20018;-90
2022/10/15 11:15:43;;;;;;;;;;;;;;;21.41;44.16;100049.50;4444619;32;19952;-94
2022/10/15 11:18:30;;;;;;;;;;;;;;;21.11;44.79;100051.97;4444677;32;20031;-93
2022/10/15 11:21:00;;;;;;;;;;;;;;;20.96;45.56;100042.66;4435335;32;20040;-90
2022/10/15 11:23:32;;;;;;;;;;;;;;;21.24;44.64;100034.97;4440436;32;20021;-95
2022/10/15 11:26:05;;;;;;;;;;;;;;;21.01;45.76;100029.41;4443801;32;19989;-95
2022/10/15 11:28:50;;;;;;;;;;;;;;;21.30;44.17;100026.91;4462799;32;19977;-84
2022/10/15 11:31:36;;;;;;;;;;;;;;;21.17;44.83;100020.22;4450917;32;20023;-94
2022/10/15 11:34:27;;;;;;;;;;;;;;;20.87;44.94;100017.44;4447544;32;19957;-95
2022/10/15 11:37:13;;;;;;;;;;;;;;;20.72;44.99;100012.53;4440987;32;19973;-92
2022/10/15 11:39:46;;;;;;;;;;;;;;;20.99;45.11;100004.88;4433919;32;19993;-96
2022/10/15 11:42:16;;;;;;;;;;;;;;;20.98;44.41;100013.69;4435255;32;20750;-92
2022/10/15 11:44:43;;;;;;;;;;;;;;;20.94;43.88;99998.88;4433506;32;19992;-88
2022/10/15 11:47:25;;;;;;;;;;;;;;;21.10;44.41;100002.87;4432678;32;20003;-94
2022/10/15 11:50:04;;;;;;;;;;;;;;;20.52;44.62;99999.81;4442741;32;19958;-95
2022/10/15 11:52:43;;;;;;;;;;;;;;;20.62;44.92;100005.75;4435469;32;20081;-94
2022/10/15 11:55:19;;;;;;;;;;;;;;;21.20;45.28;99998.22;4446852;32;20004;-91
2022/10/15 11:57:46;;;;;;;;;;;;;;;21.16;45.20;100005.34;4446117;32;20050;-93
2022/10/15 12:00:13;;;;;;;;;;;;;;;21.20;45.44;100001.72;4438089;32;19992;-82
2022/10/15 12:02:42;;;;;;;;;;;;;;;21.25;43.89;100010.37;4438223;32;19989;-89
2022/10/15 12:05:10;;;;;;;;;;;;;;;20.99;45.48;100007.50;4440214;32;19986;-86
2022/10/15 12:07:41;;;;;;;;;;;;;;;21.20;44.25;99996.47;4410142;32;19961;-92
2022/10/15 12:10:12;;;;;;;;;;;;;;;21.21;44.89;100003.44;4428033;32;20355;-94
2022/10/15 12:12:52;;;;;;;;;;;;;;;20.83;45.37;99992.06;4430384;32;19997;-86
2022/10/15 12:15:31;;;;;;;;;;;;;;;21.12;44.97;99985.25;4425352;32;20824;-93
2022/10/15 12:20:37;;;;;;;;;;;;;;;21.52;43.52;99989.53;4422524;32;19982;-90
2022/10/15 12:23:05;;;;;;;;;;;;;;;21.31;44.88;99983.91;4433547;32;20681;-93
2022/10/15 12:25:35;;;;;;;;;;;;;;;21.31;43.87;99978.63;4432508;32;20361;-79
2022/10/15 12:28:12;;;;;;;;;;;;;;;21.23;45.89;99985.84;4436122;32;19977;-85
2022/10/15 12:30:39;;;;;;;;;;;;;;;21.27;43.21;99984.88;4437988;32;19986;-89
2022/10/15 12:33:21;;;;;;;;;;;;;;;21.01;43.88;99987.28;4415396;32;20009;-80
2022/10/15 12:35:59;;;;;;;;;;;;;;;21.17;43.50;99993.03;4429478;32;20001;-79
2022/10/15 12:38:38;;;;;;;;;;;;;;;21.25;44.28;99985.81;4414996;32;20054;-89
2022/10/15 12:41:07;;;;;;;;;;;;;;;21.27;46.36;99990.12;4415375;32;20466;-94
2022/10/15 12:43:36;;;;;;;;;;;;;;;21.01;46.13;99982.03;4403980;32;20333;-83
2022/10/15 12:46:04;;;;;;;;;;;;;;;20.93;43.58;99978.69;4401820;32;19993;-82
2022/10/15 12:48:36;;;;;;;;;;;;;;;21.29;42.46;99977.81;4427511;32;20362;-88
2022/10/15 12:56:47;;;;;;;;;;;;;;;20.72;43.12;99970.44;4336606;33;20367;-91
2022/10/15 12:59:27;;;;;;;;;;;;;;;21.03;42.65;99965.31;4335155;33;19968;-87
2022/10/15 13:01:54;;;;;;;;;;;;;;;20.96;43.32;99968.09;4321590;33;19995;-86